Time,TemperatureF,DewpointF,PressureIn,WindDirection,WindDirectionDegrees,WindSpeedMPH,WindSpeedGustMPH,Humidity,HourlyPrecipIn,Conditions,Clouds,dailyrainin,SolarRadiationWatts/m^2,SoftwareType,DateUTC
2013-11-11 00:03:00,52.0,39.0,-100.00,West,264,3.0,6.0,62,0.00,,,-99.99,0.000000,,2013-11-11 05:03:00,
2013-11-11 00:13:00,52.0,39.0,-100.00,West,264,3.0,6.0,62,0.00,,,-99.99,0.000000,,2013-11-11 05:13:00,
2013-11-11 00:23:00,52.0,39.0,-100.00,West,264,3.0,6.0,62,0.00,,,-99.99,0.000000,,2013-11-11 05:23:00,
2013-11-11 00:54:00,57.0,42.0,-100.00,NE,34,6.0,15.0,57,0.00,,,0.00,0.000000,,2013-11-11 05:54:00,
2013-11-11 01:03:00,57.0,42.0,-100.00,NE,34,6.0,15.0,57,0.00,,,0.00,0.000000,,2013-11-11 06:03:00,
2013-11-11 01:13:00,57.0,42.0,-100.00,NE,34,6.0,15.0,57,0.00,,,0.00,0.000000,,2013-11-11 06:13:00,
2013-11-11 01:22:00,57.0,42.0,-100.00,NE,34,6.0,15.0,57,0.00,,,0.00,0.000000,,2013-11-11 06:22:00,
2013-11-11 01:52:00,56.0,41.0,-100.00,NE,49,6.0,20.0,58,0.00,,,0.00,0.000000,,2013-11-11 06:52:00,
2013-11-11 02:02:00,56.0,41.0,-100.00,NE,49,6.0,20.0,58,0.00,,,0.00,0.000000,,2013-11-11 07:02:00,
2013-11-11 02:12:00,56.0,41.0,-100.00,NE,49,6.0,20.0,58,0.00,,,0.00,0.000000,,2013-11-11 07:12:00,
2013-11-11 02:22:00,56.0,41.0,-100.00,NE,49,6.0,20.0,58,0.00,,,0.00,0.000000,,2013-11-11 07:22:00,
2013-11-11 02:52:00,54.0,39.0,-100.00,NE,37,7.0,16.0,56,0.00,,,0.00,0.000000,,2013-11-11 07:52:00,
2013-11-11 03:02:00,54.0,39.0,-100.00,NE,37,7.0,16.0,56,0.00,,,0.00,0.000000,,2013-11-11 08:02:00,
2013-11-11 03:12:00,54.0,39.0,-100.00,NE,37,7.0,16.0,56,0.00,,,0.00,0.000000,,2013-11-11 08:12:00,
2013-11-11 03:22:00,54.0,39.0,-100.00,NE,37,7.0,16.0,56,0.00,,,0.00,0.000000,,2013-11-11 08:22:00,
2013-11-11 03:52:00,53.0,38.0,-100.00,NE,37,7.0,20.0,57,0.00,,,0.00,0.000000,,2013-11-11 08:52:00,
2013-11-11 04:02:00,53.0,38.0,-100.00,NE,37,7.0,20.0,57,0.00,,,0.00,0.000000,,2013-11-11 09:02:00,
2013-11-11 04:11:00,53.0,38.0,-100.00,NE,37,7.0,20.0,57,0.00,,,0.00,0.000000,,2013-11-11 09:11:00,
2013-11-11 04:22:00,53.0,38.0,-100.00,NE,37,7.0,20.0,57,0.00,,,0.00,0.000000,,2013-11-11 09:22:00,
2013-11-11 04:54:00,51.0,37.0,-100.00,NE,37,6.0,15.0,58,0.00,,,0.00,0.000000,,2013-11-11 09:54:00,
2013-11-11 05:03:00,51.0,37.0,-100.00,NE,37,6.0,15.0,58,0.00,,,0.00,0.000000,,2013-11-11 10:03:00,
2013-11-11 05:13:00,51.0,37.0,-100.00,NE,37,6.0,15.0,58,0.00,,,0.00,0.000000,,2013-11-11 10:13:00,
2013-11-11 05:23:00,51.0,37.0,-100.00,NE,37,6.0,15.0,58,0.00,,,0.00,0.000000,,2013-11-11 10:23:00,
2013-11-11 05:53:00,51.0,37.0,-100.00,NE,40,6.0,14.0,58,0.00,,,0.00,0.000000,,2013-11-11 10:53:00,
2013-11-11 06:03:00,51.0,37.0,-100.00,NE,40,6.0,14.0,58,0.00,,,0.00,0.000000,,2013-11-11 11:03:00,
2013-11-11 06:12:00,51.0,37.0,-100.00,NE,40,6.0,14.0,58,0.00,,,0.00,0.000000,,2013-11-11 11:12:00,
2013-11-11 06:21:00,51.0,37.0,-100.00,NE,40,6.0,14.0,58,0.00,,,0.00,0.000000,,2013-11-11 11:21:00,
2013-11-11 06:52:00,50.0,36.0,-100.00,NNE,27,5.0,14.0,58,0.00,,,0.00,0.000000,,2013-11-11 11:52:00,
2013-11-11 07:02:00,50.0,36.0,-100.00,NNE,27,5.0,14.0,58,0.00,,,0.00,0.000000,,2013-11-11 12:02:00,
2013-11-11 07:12:00,50.0,36.0,-100.00,NNE,27,5.0,14.0,58,0.00,,,0.00,0.000000,,2013-11-11 12:12:00,
2013-11-11 07:22:00,50.0,36.0,-100.00,NNE,27,5.0,14.0,58,0.00,,,0.00,0.000000,,2013-11-11 12:22:00,
2013-11-11 07:52:00,51.0,36.0,-100.00,NNE,23,5.0,13.0,57,0.00,,,-99.99,39.000000,,2013-11-11 12:52:00,
2013-11-11 08:01:00,51.0,36.0,-100.00,NNE,23,5.0,13.0,57,0.00,,,-99.99,39.000000,,2013-11-11 13:01:00,
2013-11-11 08:11:00,51.0,36.0,-100.00,NNE,23,5.0,13.0,57,0.00,,,-99.99,39.000000,,2013-11-11 13:11:00,
2013-11-11 08:22:00,51.0,36.0,-100.00,NNE,23,5.0,13.0,57,0.00,,,-99.99,39.000000,,2013-11-11 13:22:00,
2013-11-11 08:52:00,53.0,38.0,-100.00,NNE,29,5.0,12.0,57,0.00,,,-99.99,82.000000,,2013-11-11 13:52:00,
2013-11-11 09:02:00,53.0,38.0,-100.00,NNE,29,5.0,12.0,57,0.00,,,-99.99,82.000000,,2013-11-11 14:02:00,
2013-11-11 09:11:00,53.0,38.0,-100.00,NNE,29,5.0,12.0,57,0.00,,,-99.99,82.000000,,2013-11-11 14:11:00,
2013-11-11 09:22:00,53.0,38.0,-100.00,NNE,29,5.0,12.0,57,0.00,,,-99.99,82.000000,,2013-11-11 14:22:00,
2013-11-11 09:52:00,55.0,39.0,-100.00,NNE,28,5.0,13.0,55,0.00,,,0.00,227.000000,,2013-11-11 14:52:00,
2013-11-11 10:02:00,55.0,39.0,-100.00,NNE,28,5.0,13.0,55,0.00,,,0.00,227.000000,,2013-11-11 15:02:00,
2013-11-11 10:11:00,55.0,39.0,-100.00,NNE,28,5.0,13.0,55,0.00,,,0.00,227.000000,,2013-11-11 15:11:00,
2013-11-11 10:22:00,55.0,39.0,-100.00,NNE,28,5.0,13.0,55,0.00,,,0.00,227.000000,,2013-11-11 15:22:00,
2013-11-11 10:53:00,57.0,41.0,-100.00,NE,47,5.0,12.0,54,0.00,,,0.00,542.000000,,2013-11-11 15:53:00,
2013-11-11 11:03:00,57.0,41.0,-100.00,NE,47,5.0,12.0,54,0.00,,,0.00,542.000000,,2013-11-11 16:03:00,
2013-11-11 11:13:00,57.0,41.0,-100.00,NE,47,5.0,12.0,54,0.00,,,0.00,542.000000,,2013-11-11 16:13:00,
2013-11-11 11:23:00,57.0,41.0,-100.00,NE,47,5.0,12.0,54,0.00,,,0.00,542.000000,,2013-11-11 16:23:00,
2013-11-11 11:53:00,58.0,41.0,-100.00,NE,54,5.0,13.0,54,0.00,,,0.00,634.000000,,2013-11-11 16:53:00,
2013-11-11 12:03:00,58.0,41.0,-100.00,NE,54,5.0,13.0,54,0.00,,,0.00,634.000000,,2013-11-11 17:03:00,
2013-11-11 12:12:00,58.0,41.0,-100.00,NE,54,5.0,13.0,54,0.00,,,0.00,634.000000,,2013-11-11 17:12:00,
2013-11-11 12:22:00,58.0,41.0,-100.00,NE,54,5.0,13.0,54,0.00,,,0.00,634.000000,,2013-11-11 17:22:00,
2013-11-11 12:52:00,60.0,43.0,-100.00,ENE,59,4.0,10.0,53,0.00,,,0.00,664.000000,,2013-11-11 17:52:00,
2013-11-11 13:02:00,60.0,43.0,-100.00,ENE,59,4.0,10.0,53,0.00,,,0.00,664.000000,,2013-11-11 18:02:00,
2013-11-11 13:13:00,60.0,43.0,-100.00,ENE,59,4.0,10.0,53,0.00,,,0.00,664.000000,,2013-11-11 18:13:00,
2013-11-11 13:23:00,60.0,43.0,-100.00,ENE,59,4.0,10.0,53,0.00,,,0.00,664.000000,,2013-11-11 18:23:00,
2013-11-11 13:52:00,59.0,42.0,-100.00,NE,52,4.0,12.0,53,0.00,,,0.00,631.000000,,2013-11-11 18:52:00,
2013-11-11 14:02:00,59.0,42.0,-100.00,NE,52,4.0,12.0,53,0.00,,,0.00,631.000000,,2013-11-11 19:02:00,
2013-11-11 14:12:00,59.0,42.0,-100.00,NE,52,4.0,12.0,53,0.00,,,0.00,631.000000,,2013-11-11 19:12:00,
2013-11-11 14:22:00,59.0,42.0,-100.00,NE,52,4.0,12.0,53,0.00,,,0.00,631.000000,,2013-11-11 19:22:00,
2013-11-11 14:53:00,59.0,42.0,-100.00,NE,52,4.0,10.0,53,0.00,,,0.00,536.000000,,2013-11-11 19:53:00,
2013-11-11 15:02:00,59.0,42.0,-100.00,NE,52,4.0,10.0,53,0.00,,,0.00,536.000000,,2013-11-11 20:02:00,
2013-11-11 15:11:00,59.0,42.0,-100.00,NE,52,4.0,10.0,53,0.00,,,0.00,536.000000,,2013-11-11 20:11:00,
2013-11-11 15:22:00,59.0,42.0,-100.00,NE,52,4.0,10.0,53,0.00,,,0.00,536.000000,,2013-11-11 20:22:00,
2013-11-11 15:52:00,59.0,42.0,-100.00,NE,54,3.0,9.0,54,0.00,,,0.00,389.000000,,2013-11-11 20:52:00,
2013-11-11 16:02:00,59.0,42.0,-100.00,NE,54,3.0,9.0,54,0.00,,,0.00,389.000000,,2013-11-11 21:02:00,
2013-11-11 16:12:00,59.0,42.0,-100.00,NE,54,3.0,9.0,54,0.00,,,0.00,389.000000,,2013-11-11 21:12:00,
2013-11-11 16:22:00,59.0,42.0,-100.00,NE,54,3.0,9.0,54,0.00,,,0.00,389.000000,,2013-11-11 21:22:00,
2013-11-11 16:55:00,55.0,40.0,-100.00,NNE,16,2.0,6.0,56,0.00,,,0.00,97.000000,,2013-11-11 21:55:00,
2013-11-11 17:04:00,55.0,40.0,-100.00,NNE,16,2.0,6.0,56,0.00,,,0.00,97.000000,,2013-11-11 22:04:00,
2013-11-11 17:14:00,55.0,40.0,-100.00,NNE,16,2.0,6.0,56,0.00,,,0.00,97.000000,,2013-11-11 22:14:00,
2013-11-11 17:24:00,55.0,40.0,-100.00,NNE,16,2.0,6.0,56,0.00,,,0.00,97.000000,,2013-11-11 22:24:00,
2013-11-11 17:53:00,50.0,38.0,-100.00,West,280,2.0,5.0,64,0.00,,,0.00,9.000000,,2013-11-11 22:53:00,
2013-11-11 18:03:00,50.0,38.0,-100.00,West,280,2.0,5.0,64,0.00,,,0.00,9.000000,,2013-11-11 23:03:00,
2013-11-11 18:13:00,50.0,38.0,-100.00,West,280,2.0,5.0,64,0.00,,,0.00,9.000000,,2013-11-11 23:13:00,
2013-11-11 18:22:00,50.0,38.0,-100.00,West,280,2.0,5.0,64,0.00,,,0.00,9.000000,,2013-11-11 23:22:00,
2013-11-11 18:53:00,47.0,37.0,-100.00,SW,235,1.0,2.0,67,0.00,,,0.00,0.000000,,2013-11-11 23:53:00,
2013-11-11 19:03:00,47.0,37.0,-100.00,SW,235,1.0,2.0,67,0.00,,,0.00,0.000000,,2013-11-12 00:03:00,
2013-11-11 19:12:00,47.0,37.0,-100.00,SW,235,1.0,2.0,67,0.00,,,0.00,0.000000,,2013-11-12 00:12:00,
2013-11-11 19:22:00,47.0,37.0,-100.00,SW,235,1.0,2.0,67,0.00,,,0.00,0.000000,,2013-11-12 00:22:00,
2013-11-11 19:52:00,46.0,36.0,-100.00,West,274,2.0,3.0,69,0.00,,,0.00,0.000000,,2013-11-12 00:52:00,
2013-11-11 20:02:00,46.0,36.0,-100.00,West,274,2.0,3.0,69,0.00,,,0.00,0.000000,,2013-11-12 01:02:00,
2013-11-11 20:11:00,46.0,36.0,-100.00,West,274,2.0,3.0,69,0.00,,,0.00,0.000000,,2013-11-12 01:11:00,
2013-11-11 20:22:00,46.0,36.0,-100.00,West,274,2.0,3.0,69,0.00,,,0.00,0.000000,,2013-11-12 01:22:00,
2013-11-11 20:52:00,45.0,35.0,-100.00,West,265,2.0,2.0,69,0.00,,,0.00,0.000000,,2013-11-12 01:52:00,
2013-11-11 21:01:00,45.0,35.0,-100.00,West,265,2.0,2.0,69,0.00,,,0.00,0.000000,,2013-11-12 02:01:00,
2013-11-11 21:12:00,45.0,35.0,-100.00,West,265,2.0,2.0,69,0.00,,,0.00,0.000000,,2013-11-12 02:12:00,
2013-11-11 21:22:00,45.0,35.0,-100.00,West,265,2.0,2.0,69,0.00,,,0.00,0.000000,,2013-11-12 02:22:00,
2013-11-11 23:24:00,45.0,36.0,-100.00,West,263,2.0,3.0,70,0.00,,,0.00,0.000000,,2013-11-12 04:24:00,